sensor_id;sensor_type;location;lat;lon;timestamp;temperature;humidity
22635;DHT22;11484;50.858;4.384;2022-08-21T00:00:51;20.20;92.20
22635;DHT22;11484;50.858;4.384;2022-08-21T00:03:18;20.20;92.40
22635;DHT22;11484;50.858;4.384;2022-08-21T00:05:49;20.20;92.50
22635;DHT22;11484;50.858;4.384;2022-08-21T00:08:18;20.10;92.80
22635;DHT22;11484;50.858;4.384;2022-08-21T00:10:46;20.10;93.00
22635;DHT22;11484;50.858;4.384;2022-08-21T00:13:13;20.10;93.20
22635;DHT22;11484;50.858;4.384;2022-08-21T00:15:39;20.00;93.50
22635;DHT22;11484;50.858;4.384;2022-08-21T00:18:08;19.90;93.80
22635;DHT22;11484;50.858;4.384;2022-08-21T00:20:34;19.90;93.90
22635;DHT22;11484;50.858;4.384;2022-08-21T00:23:01;19.90;94.00
22635;DHT22;11484;50.858;4.384;2022-08-21T00:25:27;19.90;94.20
22635;DHT22;11484;50.858;4.384;2022-08-21T00:27:54;19.90;94.40
22635;DHT22;11484;50.858;4.384;2022-08-21T00:30:23;19.80;94.80
22635;DHT22;11484;50.858;4.384;2022-08-21T00:32:51;19.70;95.00
22635;DHT22;11484;50.858;4.384;2022-08-21T00:35:20;19.70;95.30
22635;DHT22;11484;50.858;4.384;2022-08-21T00:37:45;19.60;95.50
22635;DHT22;11484;50.858;4.384;2022-08-21T00:40:15;19.60;95.80
22635;DHT22;11484;50.858;4.384;2022-08-21T00:42:41;19.50;96.10
22635;DHT22;11484;50.858;4.384;2022-08-21T00:45:08;19.50;96.40
22635;DHT22;11484;50.858;4.384;2022-08-21T00:47:34;19.60;96.40
22635;DHT22;11484;50.858;4.384;2022-08-21T00:50:00;19.40;96.70
22635;DHT22;11484;50.858;4.384;2022-08-21T00:52:28;19.30;97.10
22635;DHT22;11484;50.858;4.384;2022-08-21T00:54:57;19.30;97.40
22635;DHT22;11484;50.858;4.384;2022-08-21T00:57:28;19.30;97.30
22635;DHT22;11484;50.858;4.384;2022-08-21T00:59:56;19.30;97.40
22635;DHT22;11484;50.858;4.384;2022-08-21T01:02:24;19.30;97.60
22635;DHT22;11484;50.858;4.384;2022-08-21T01:04:50;19.30;97.60
22635;DHT22;11484;50.858;4.384;2022-08-21T01:07:16;19.30;97.80
22635;DHT22;11484;50.858;4.384;2022-08-21T01:09:43;19.20;97.80
22635;DHT22;11484;50.858;4.384;2022-08-21T01:12:09;19.30;97.90
22635;DHT22;11484;50.858;4.384;2022-08-21T01:14:36;19.30;97.90
22635;DHT22;11484;50.858;4.384;2022-08-21T01:17:02;19.20;98.00
22635;DHT22;11484;50.858;4.384;2022-08-21T01:19:28;19.20;98.30
22635;DHT22;11484;50.858;4.384;2022-08-21T01:21:54;19.10;98.50
22635;DHT22;11484;50.858;4.384;2022-08-21T01:24:20;19.00;98.60
22635;DHT22;11484;50.858;4.384;2022-08-21T01:26:48;19.00;98.70
22635;DHT22;11484;50.858;4.384;2022-08-21T01:29:34;19.10;98.70
22635;DHT22;11484;50.858;4.384;2022-08-21T01:32:08;19.00;98.80
22635;DHT22;11484;50.858;4.384;2022-08-21T01:34:36;19.00;99.10
22635;DHT22;11484;50.858;4.384;2022-08-21T01:37:02;19.00;99.10
22635;DHT22;11484;50.858;4.384;2022-08-21T01:39:29;19.00;99.10
22635;DHT22;11484;50.858;4.384;2022-08-21T01:41:55;18.90;99.20
22635;DHT22;11484;50.858;4.384;2022-08-21T01:44:22;18.90;99.40
22635;DHT22;11484;50.858;4.384;2022-08-21T01:46:48;18.90;99.50
22635;DHT22;11484;50.858;4.384;2022-08-21T01:49:14;19.00;99.50
22635;DHT22;11484;50.858;4.384;2022-08-21T01:51:41;18.90;99.70
22635;DHT22;11484;50.858;4.384;2022-08-21T01:54:07;18.80;99.90
22635;DHT22;11484;50.858;4.384;2022-08-21T01:56:45;18.80;99.90
22635;DHT22;11484;50.858;4.384;2022-08-21T01:59:11;18.80;99.90
22635;DHT22;11484;50.858;4.384;2022-08-21T02:01:37;18.80;99.90
22635;DHT22;11484;50.858;4.384;2022-08-21T02:04:06;18.80;99.90
22635;DHT22;11484;50.858;4.384;2022-08-21T02:06:32;18.90;99.90
22635;DHT22;11484;50.858;4.384;2022-08-21T02:08:58;18.90;99.90
22635;DHT22;11484;50.858;4.384;2022-08-21T02:11:24;18.80;99.90
22635;DHT22;11484;50.858;4.384;2022-08-21T02:13:50;18.70;99.90
22635;DHT22;11484;50.858;4.384;2022-08-21T02:16:16;18.70;99.90
22635;DHT22;11484;50.858;4.384;2022-08-21T02:18:42;18.70;99.90
22635;DHT22;11484;50.858;4.384;2022-08-21T02:21:08;18.60;99.90
22635;DHT22;11484;50.858;4.384;2022-08-21T02:23:34;18.70;99.90
22635;DHT22;11484;50.858;4.384;2022-08-21T02:26:03;18.60;99.90
22635;DHT22;11484;50.858;4.384;2022-08-21T02:28:29;18.60;99.90
22635;DHT22;11484;50.858;4.384;2022-08-21T02:30:56;18.60;99.90
22635;DHT22;11484;50.858;4.384;2022-08-21T02:33:23;18.70;99.90
22635;DHT22;11484;50.858;4.384;2022-08-21T02:35:50;18.70;99.90
22635;DHT22;11484;50.858;4.384;2022-08-21T02:38:20;18.70;99.90
22635;DHT22;11484;50.858;4.384;2022-08-21T02:40:48;18.70;99.90
22635;DHT22;11484;50.858;4.384;2022-08-21T02:43:15;18.70;99.90
22635;DHT22;11484;50.858;4.384;2022-08-21T02:45:42;18.70;99.90
22635;DHT22;11484;50.858;4.384;2022-08-21T02:48:10;18.70;99.90
22635;DHT22;11484;50.858;4.384;2022-08-21T02:50:42;18.70;99.90
22635;DHT22;11484;50.858;4.384;2022-08-21T02:53:10;18.80;99.90
22635;DHT22;11484;50.858;4.384;2022-08-21T02:55:37;18.70;99.90
22635;DHT22;11484;50.858;4.384;2022-08-21T02:58:05;18.70;99.90
22635;DHT22;11484;50.858;4.384;2022-08-21T03:00:32;18.60;99.90
22635;DHT22;11484;50.858;4.384;2022-08-21T03:02:58;18.60;99.90
22635;DHT22;11484;50.858;4.384;2022-08-21T03:05:26;18.60;99.90
22635;DHT22;11484;50.858;4.384;2022-08-21T03:07:53;18.50;99.90
22635;DHT22;11484;50.858;4.384;2022-08-21T03:10:20;18.60;99.90
22635;DHT22;11484;50.858;4.384;2022-08-21T03:12:48;18.60;99.90
22635;DHT22;11484;50.858;4.384;2022-08-21T03:15:15;18.50;99.90
22635;DHT22;11484;50.858;4.384;2022-08-21T03:17:43;18.60;99.90
22635;DHT22;11484;50.858;4.384;2022-08-21T03:20:10;18.50;99.90
22635;DHT22;11484;50.858;4.384;2022-08-21T03:22:36;18.50;99.90
22635;DHT22;11484;50.858;4.384;2022-08-21T03:25:02;18.50;99.90
22635;DHT22;11484;50.858;4.384;2022-08-21T03:27:29;18.40;99.90
22635;DHT22;11484;50.858;4.384;2022-08-21T03:29:56;18.40;99.90
22635;DHT22;11484;50.858;4.384;2022-08-21T03:32:22;18.40;99.90
22635;DHT22;11484;50.858;4.384;2022-08-21T03:34:48;18.40;99.90
22635;DHT22;11484;50.858;4.384;2022-08-21T03:37:14;18.50;99.90
22635;DHT22;11484;50.858;4.384;2022-08-21T03:39:41;18.50;99.90
22635;DHT22;11484;50.858;4.384;2022-08-21T03:42:08;18.50;99.90
22635;DHT22;11484;50.858;4.384;2022-08-21T03:44:35;18.40;99.90
22635;DHT22;11484;50.858;4.384;2022-08-21T03:47:02;18.30;99.90
22635;DHT22;11484;50.858;4.384;2022-08-21T03:49:28;18.40;99.90
22635;DHT22;11484;50.858;4.384;2022-08-21T03:51:53;18.50;99.90
22635;DHT22;11484;50.858;4.384;2022-08-21T03:54:19;18.40;99.90
22635;DHT22;11484;50.858;4.384;2022-08-21T03:56:45;18.50;99.90
22635;DHT22;11484;50.858;4.384;2022-08-21T03:59:11;18.50;99.90
22635;DHT22;11484;50.858;4.384;2022-08-21T04:01:37;18.40;99.90
22635;DHT22;11484;50.858;4.384;2022-08-21T04:04:04;18.50;99.90
22635;DHT22;11484;50.858;4.384;2022-08-21T04:06:30;18.50;99.90
22635;DHT22;11484;50.858;4.384;2022-08-21T04:08:56;18.50;99.90
22635;DHT22;11484;50.858;4.384;2022-08-21T04:11:22;18.40;99.90
22635;DHT22;11484;50.858;4.384;2022-08-21T04:13:48;18.50;99.90
22635;DHT22;11484;50.858;4.384;2022-08-21T04:16:14;18.40;99.90
22635;DHT22;11484;50.858;4.384;2022-08-21T04:18:41;18.50;99.90
22635;DHT22;11484;50.858;4.384;2022-08-21T04:21:09;18.40;99.90
22635;DHT22;11484;50.858;4.384;2022-08-21T04:23:36;18.30;99.90
22635;DHT22;11484;50.858;4.384;2022-08-21T04:26:02;18.40;99.90
22635;DHT22;11484;50.858;4.384;2022-08-21T04:28:28;18.30;99.90
22635;DHT22;11484;50.858;4.384;2022-08-21T04:30:54;18.30;99.90
22635;DHT22;11484;50.858;4.384;2022-08-21T04:33:21;18.40;99.90
22635;DHT22;11484;50.858;4.384;2022-08-21T04:35:47;18.40;99.90
22635;DHT22;11484;50.858;4.384;2022-08-21T04:38:14;18.40;99.90
22635;DHT22;11484;50.858;4.384;2022-08-21T04:40:40;18.40;99.90
22635;DHT22;11484;50.858;4.384;2022-08-21T04:43:09;18.30;99.90
22635;DHT22;11484;50.858;4.384;2022-08-21T04:45:44;18.20;99.90
22635;DHT22;11484;50.858;4.384;2022-08-21T04:48:12;18.20;99.90
22635;DHT22;11484;50.858;4.384;2022-08-21T04:50:57;18.20;99.90
22635;DHT22;11484;50.858;4.384;2022-08-21T04:56:05;18.30;99.90
22635;DHT22;11484;50.858;4.384;2022-08-21T04:58:34;18.40;99.90
22635;DHT22;11484;50.858;4.384;2022-08-21T05:01:03;18.30;99.90
22635;DHT22;11484;50.858;4.384;2022-08-21T05:03:30;18.30;99.90
22635;DHT22;11484;50.858;4.384;2022-08-21T05:05:56;18.30;99.90
22635;DHT22;11484;50.858;4.384;2022-08-21T05:08:24;18.40;99.90
22635;DHT22;11484;50.858;4.384;2022-08-21T05:10:51;18.50;99.90
22635;DHT22;11484;50.858;4.384;2022-08-21T05:13:18;18.50;99.90
22635;DHT22;11484;50.858;4.384;2022-08-21T05:15:44;18.50;99.90
22635;DHT22;11484;50.858;4.384;2022-08-21T05:18:10;18.40;99.90
22635;DHT22;11484;50.858;4.384;2022-08-21T05:20:36;18.40;99.90
22635;DHT22;11484;50.858;4.384;2022-08-21T05:23:10;18.30;99.90
22635;DHT22;11484;50.858;4.384;2022-08-21T05:25:37;18.30;99.90
22635;DHT22;11484;50.858;4.384;2022-08-21T05:28:03;18.30;99.90
22635;DHT22;11484;50.858;4.384;2022-08-21T05:30:29;18.30;99.90
22635;DHT22;11484;50.858;4.384;2022-08-21T05:33:01;18.20;99.90
22635;DHT22;11484;50.858;4.384;2022-08-21T05:35:28;18.30;99.90
22635;DHT22;11484;50.858;4.384;2022-08-21T05:37:56;18.20;99.90
22635;DHT22;11484;50.858;4.384;2022-08-21T05:40:23;18.30;99.90
22635;DHT22;11484;50.858;4.384;2022-08-21T05:42:50;18.30;99.90
22635;DHT22;11484;50.858;4.384;2022-08-21T05:45:16;18.30;99.90
22635;DHT22;11484;50.858;4.384;2022-08-21T05:47:42;18.20;99.90
22635;DHT22;11484;50.858;4.384;2022-08-21T05:50:08;18.20;99.90
22635;DHT22;11484;50.858;4.384;2022-08-21T05:52:34;18.20;99.90
22635;DHT22;11484;50.858;4.384;2022-08-21T05:55:01;18.30;99.90
22635;DHT22;11484;50.858;4.384;2022-08-21T05:57:27;18.20;99.90
22635;DHT22;11484;50.858;4.384;2022-08-21T05:59:54;18.30;99.90
22635;DHT22;11484;50.858;4.384;2022-08-21T06:02:21;18.30;99.90
22635;DHT22;11484;50.858;4.384;2022-08-21T06:04:47;18.30;99.90
22635;DHT22;11484;50.858;4.384;2022-08-21T06:07:13;18.40;99.90
22635;DHT22;11484;50.858;4.384;2022-08-21T06:09:39;18.40;99.90
22635;DHT22;11484;50.858;4.384;2022-08-21T06:12:10;18.40;99.90
22635;DHT22;11484;50.858;4.384;2022-08-21T06:14:37;18.50;99.90
22635;DHT22;11484;50.858;4.384;2022-08-21T06:17:05;18.50;99.90
22635;DHT22;11484;50.858;4.384;2022-08-21T06:19:31;18.50;99.90
22635;DHT22;11484;50.858;4.384;2022-08-21T06:21:58;18.50;99.90
22635;DHT22;11484;50.858;4.384;2022-08-21T06:24:25;18.50;99.90
22635;DHT22;11484;50.858;4.384;2022-08-21T06:26:52;18.50;99.90
22635;DHT22;11484;50.858;4.384;2022-08-21T06:29:18;18.60;99.90
22635;DHT22;11484;50.858;4.384;2022-08-21T06:31:47;18.50;99.90
22635;DHT22;11484;50.858;4.384;2022-08-21T06:34:13;18.70;99.90
22635;DHT22;11484;50.858;4.384;2022-08-21T06:36:39;18.70;99.90
22635;DHT22;11484;50.858;4.384;2022-08-21T06:39:05;19.30;99.90
22635;DHT22;11484;50.858;4.384;2022-08-21T06:41:32;20.20;99.90
22635;DHT22;11484;50.858;4.384;2022-08-21T06:43:58;21.10;98.30
22635;DHT22;11484;50.858;4.384;2022-08-21T06:46:26;22.10;95.90
22635;DHT22;11484;50.858;4.384;2022-08-21T06:48:52;23.00;93.50
22635;DHT22;11484;50.858;4.384;2022-08-21T06:51:18;24.00;90.70
22635;DHT22;11484;50.858;4.384;2022-08-21T06:53:44;24.80;86.20
22635;DHT22;11484;50.858;4.384;2022-08-21T06:56:10;25.70;82.10
22635;DHT22;11484;50.858;4.384;2022-08-21T06:58:36;26.10;77.90
22635;DHT22;11484;50.858;4.384;2022-08-21T07:01:02;26.80;75.90
22635;DHT22;11484;50.858;4.384;2022-08-21T07:03:31;27.20;71.90
22635;DHT22;11484;50.858;4.384;2022-08-21T07:05:57;27.80;70.30
22635;DHT22;11484;50.858;4.384;2022-08-21T07:08:25;28.10;68.70
22635;DHT22;11484;50.858;4.384;2022-08-21T07:10:52;28.60;66.30
22635;DHT22;11484;50.858;4.384;2022-08-21T07:13:18;28.70;65.00
22635;DHT22;11484;50.858;4.384;2022-08-21T07:15:44;29.10;64.00
22635;DHT22;11484;50.858;4.384;2022-08-21T07:18:11;29.50;62.40
22635;DHT22;11484;50.858;4.384;2022-08-21T07:20:37;29.90;60.90
22635;DHT22;11484;50.858;4.384;2022-08-21T07:23:06;30.20;59.70
22635;DHT22;11484;50.858;4.384;2022-08-21T07:25:33;30.10;59.50
22635;DHT22;11484;50.858;4.384;2022-08-21T07:27:59;30.30;59.10
22635;DHT22;11484;50.858;4.384;2022-08-21T07:30:25;30.50;58.40
22635;DHT22;11484;50.858;4.384;2022-08-21T07:32:51;29.90;59.00
22635;DHT22;11484;50.858;4.384;2022-08-21T07:35:18;29.30;60.70
22635;DHT22;11484;50.858;4.384;2022-08-21T07:37:45;28.70;62.30
22635;DHT22;11484;50.858;4.384;2022-08-21T07:40:11;28.80;62.90
22635;DHT22;11484;50.858;4.384;2022-08-21T07:42:46;29.70;61.50
22635;DHT22;11484;50.858;4.384;2022-08-21T07:45:13;30.10;59.40
22635;DHT22;11484;50.858;4.384;2022-08-21T07:47:40;30.30;59.20
22635;DHT22;11484;50.858;4.384;2022-08-21T07:50:06;30.10;59.70
22635;DHT22;11484;50.858;4.384;2022-08-21T07:52:32;29.70;60.10
22635;DHT22;11484;50.858;4.384;2022-08-21T07:54:59;29.20;61.20
22635;DHT22;11484;50.858;4.384;2022-08-21T07:57:25;28.90;62.20
22635;DHT22;11484;50.858;4.384;2022-08-21T07:59:50;28.50;63.50
22635;DHT22;11484;50.858;4.384;2022-08-21T08:02:27;28.30;64.90
22635;DHT22;11484;50.858;4.384;2022-08-21T08:04:53;27.70;65.90
22635;DHT22;11484;50.858;4.384;2022-08-21T08:07:19;27.30;67.80
22635;DHT22;11484;50.858;4.384;2022-08-21T08:09:45;26.70;69.90
22635;DHT22;11484;50.858;4.384;2022-08-21T08:12:11;26.50;69.90
22635;DHT22;11484;50.858;4.384;2022-08-21T08:14:37;26.50;70.70
22635;DHT22;11484;50.858;4.384;2022-08-21T08:17:03;26.60;70.90
22635;DHT22;11484;50.858;4.384;2022-08-21T08:19:29;26.60;70.70
22635;DHT22;11484;50.858;4.384;2022-08-21T08:21:55;26.90;70.40
22635;DHT22;11484;50.858;4.384;2022-08-21T08:24:21;27.20;70.20
22635;DHT22;11484;50.858;4.384;2022-08-21T08:26:47;27.30;69.00
22635;DHT22;11484;50.858;4.384;2022-08-21T08:29:13;27.20;68.10
22635;DHT22;11484;50.858;4.384;2022-08-21T08:31:39;27.00;68.20
22635;DHT22;11484;50.858;4.384;2022-08-21T08:34:05;26.80;69.10
22635;DHT22;11484;50.858;4.384;2022-08-21T08:36:36;27.00;69.00
22635;DHT22;11484;50.858;4.384;2022-08-21T08:39:04;27.10;68.70
22635;DHT22;11484;50.858;4.384;2022-08-21T08:41:31;27.50;68.40
22635;DHT22;11484;50.858;4.384;2022-08-21T08:44:03;28.00;66.10
22635;DHT22;11484;50.858;4.384;2022-08-21T08:46:46;28.40;65.10
22635;DHT22;11484;50.858;4.384;2022-08-21T08:49:20;29.00;63.70
22635;DHT22;11484;50.858;4.384;2022-08-21T08:55:13;30.50;60.00
22635;DHT22;11484;50.858;4.384;2022-08-21T08:57:44;31.20;57.90
22635;DHT22;11484;50.858;4.384;2022-08-21T09:00:12;31.60;56.90
22635;DHT22;11484;50.858;4.384;2022-08-21T09:02:40;31.40;56.40
22635;DHT22;11484;50.858;4.384;2022-08-21T09:05:07;31.20;56.50
22635;DHT22;11484;50.858;4.384;2022-08-21T09:07:50;30.70;58.30
22635;DHT22;11484;50.858;4.384;2022-08-21T09:10:23;31.10;57.00
22635;DHT22;11484;50.858;4.384;2022-08-21T09:18:51;33.20;53.20
22635;DHT22;11484;50.858;4.384;2022-08-21T09:24:29;33.60;50.30
22635;DHT22;11484;50.858;4.384;2022-08-21T09:27:04;33.30;51.20
22635;DHT22;11484;50.858;4.384;2022-08-21T09:29:37;33.00;51.10
22635;DHT22;11484;50.858;4.384;2022-08-21T09:32:11;32.40;51.60
22635;DHT22;11484;50.858;4.384;2022-08-21T09:34:40;31.80;52.60
22635;DHT22;11484;50.858;4.384;2022-08-21T09:37:16;31.50;54.40
22635;DHT22;11484;50.858;4.384;2022-08-21T09:39:43;32.30;53.20
22635;DHT22;11484;50.858;4.384;2022-08-21T09:42:09;32.60;51.80
22635;DHT22;11484;50.858;4.384;2022-08-21T09:44:38;32.90;51.90
22635;DHT22;11484;50.858;4.384;2022-08-21T09:47:10;32.60;51.90
22635;DHT22;11484;50.858;4.384;2022-08-21T09:49:41;32.10;51.70
22635;DHT22;11484;50.858;4.384;2022-08-21T09:52:22;31.60;52.70
22635;DHT22;11484;50.858;4.384;2022-08-21T09:54:54;30.80;53.70
22635;DHT22;11484;50.858;4.384;2022-08-21T09:57:25;29.80;55.60
22635;DHT22;11484;50.858;4.384;2022-08-21T10:02:37;29.00;57.60
22635;DHT22;11484;50.858;4.384;2022-08-21T10:05:20;28.80;58.50
22635;DHT22;11484;50.858;4.384;2022-08-21T10:07:48;29.00;58.40
22635;DHT22;11484;50.858;4.384;2022-08-21T10:10:21;29.10;58.10
22635;DHT22;11484;50.858;4.384;2022-08-21T10:18:13;28.20;59.60
22635;DHT22;11484;50.858;4.384;2022-08-21T10:24:06;28.90;58.90
22635;DHT22;11484;50.858;4.384;2022-08-21T10:26:50;28.90;59.30
22635;DHT22;11484;50.858;4.384;2022-08-21T10:38:06;28.80;58.30
22635;DHT22;11484;50.858;4.384;2022-08-21T10:51:41;27.80;60.70
22635;DHT22;11484;50.858;4.384;2022-08-21T10:56:51;27.70;61.50
22635;DHT22;11484;50.858;4.384;2022-08-21T10:59:53;27.70;61.60
22635;DHT22;11484;50.858;4.384;2022-08-21T11:02:42;27.70;62.00
22635;DHT22;11484;50.858;4.384;2022-08-21T11:05:27;27.40;62.60
22635;DHT22;11484;50.858;4.384;2022-08-21T11:08:02;27.40;62.70
22635;DHT22;11484;50.858;4.384;2022-08-21T11:10:37;27.40;62.80
22635;DHT22;11484;50.858;4.384;2022-08-21T11:13:33;27.30;62.60
22635;DHT22;11484;50.858;4.384;2022-08-21T11:19:00;26.90;63.90
22635;DHT22;11484;50.858;4.384;2022-08-21T11:21:56;26.90;64.20
22635;DHT22;11484;50.858;4.384;2022-08-21T11:24:34;26.60;64.70
22635;DHT22;11484;50.858;4.384;2022-08-21T11:29:50;26.30;65.00
22635;DHT22;11484;50.858;4.384;2022-08-21T11:32:45;26.10;65.50
22635;DHT22;11484;50.858;4.384;2022-08-21T11:41:16;26.10;65.80
22635;DHT22;11484;50.858;4.384;2022-08-21T11:44:34;26.00;65.00
22635;DHT22;11484;50.858;4.384;2022-08-21T11:46:57;26.00;65.90
22635;DHT22;11484;50.858;4.384;2022-08-21T11:49:57;25.90;66.70
22635;DHT22;11484;50.858;4.384;2022-08-21T11:52:33;25.80;66.80
22635;DHT22;11484;50.858;4.384;2022-08-21T11:55:07;26.00;66.30
22635;DHT22;11484;50.858;4.384;2022-08-21T11:57:46;26.10;66.50
22635;DHT22;11484;50.858;4.384;2022-08-21T12:00:23;26.30;65.70
22635;DHT22;11484;50.858;4.384;2022-08-21T12:02:55;26.40;64.60
22635;DHT22;11484;50.858;4.384;2022-08-21T12:05:32;26.40;64.40
22635;DHT22;11484;50.858;4.384;2022-08-21T12:08:26;26.40;64.60
22635;DHT22;11484;50.858;4.384;2022-08-21T12:13:29;26.70;64.70
22635;DHT22;11484;50.858;4.384;2022-08-21T12:16:16;26.80;63.90
22635;DHT22;11484;50.858;4.384;2022-08-21T12:19:10;26.70;63.60
22635;DHT22;11484;50.858;4.384;2022-08-21T12:26:57;26.80;64.00
22635;DHT22;11484;50.858;4.384;2022-08-21T12:29:29;26.90;64.10
22635;DHT22;11484;50.858;4.384;2022-08-21T12:32:19;27.10;62.60
22635;DHT22;11484;50.858;4.384;2022-08-21T12:34:52;27.00;62.80
22635;DHT22;11484;50.858;4.384;2022-08-21T12:39:54;27.00;61.80
22635;DHT22;11484;50.858;4.384;2022-08-21T12:42:31;27.00;59.80
22635;DHT22;11484;50.858;4.384;2022-08-21T12:45:03;27.00;60.80
22635;DHT22;11484;50.858;4.384;2022-08-21T12:47:49;27.00;61.10
22635;DHT22;11484;50.858;4.384;2022-08-21T12:50:38;26.90;61.30
22635;DHT22;11484;50.858;4.384;2022-08-21T12:53:09;26.80;61.50
22635;DHT22;11484;50.858;4.384;2022-08-21T12:55:41;26.60;60.90
22635;DHT22;11484;50.858;4.384;2022-08-21T12:58:20;26.50;61.70
22635;DHT22;11484;50.858;4.384;2022-08-21T13:00:56;26.50;62.00
22635;DHT22;11484;50.858;4.384;2022-08-21T13:03:23;26.30;61.30
22635;DHT22;11484;50.858;4.384;2022-08-21T13:05:49;26.10;62.60
22635;DHT22;11484;50.858;4.384;2022-08-21T13:08:19;26.20;62.20
22635;DHT22;11484;50.858;4.384;2022-08-21T13:10:47;26.30;61.60
22635;DHT22;11484;50.858;4.384;2022-08-21T13:13:22;26.30;62.30
22635;DHT22;11484;50.858;4.384;2022-08-21T13:15:49;26.30;62.10
22635;DHT22;11484;50.858;4.384;2022-08-21T13:18:23;26.30;62.50
22635;DHT22;11484;50.858;4.384;2022-08-21T13:20:50;26.50;61.90
22635;DHT22;11484;50.858;4.384;2022-08-21T13:25:50;26.70;62.30
22635;DHT22;11484;50.858;4.384;2022-08-21T13:28:16;26.80;62.10
22635;DHT22;11484;50.858;4.384;2022-08-21T13:30:45;26.80;62.00
22635;DHT22;11484;50.858;4.384;2022-08-21T13:33:14;26.70;62.60
22635;DHT22;11484;50.858;4.384;2022-08-21T13:36:03;26.70;62.10
22635;DHT22;11484;50.858;4.384;2022-08-21T13:38:33;26.60;61.60
22635;DHT22;11484;50.858;4.384;2022-08-21T13:43:36;26.60;61.50
22635;DHT22;11484;50.858;4.384;2022-08-21T13:46:07;26.60;61.50
22635;DHT22;11484;50.858;4.384;2022-08-21T13:48:35;26.70;61.20
22635;DHT22;11484;50.858;4.384;2022-08-21T13:51:02;26.70;61.10
22635;DHT22;11484;50.858;4.384;2022-08-21T13:54:13;26.70;60.40
22635;DHT22;11484;50.858;4.384;2022-08-21T13:56:27;26.50;60.40
22635;DHT22;11484;50.858;4.384;2022-08-21T13:58:56;26.40;60.80
22635;DHT22;11484;50.858;4.384;2022-08-21T14:01:32;26.50;60.90
22635;DHT22;11484;50.858;4.384;2022-08-21T14:04:20;26.50;60.80
22635;DHT22;11484;50.858;4.384;2022-08-21T14:06:47;26.40;61.50
22635;DHT22;11484;50.858;4.384;2022-08-21T14:09:35;26.30;61.40
22635;DHT22;11484;50.858;4.384;2022-08-21T14:12:25;26.40;61.40
22635;DHT22;11484;50.858;4.384;2022-08-21T14:14:53;26.40;61.30
22635;DHT22;11484;50.858;4.384;2022-08-21T14:17:33;26.50;62.20
22635;DHT22;11484;50.858;4.384;2022-08-21T14:20:00;26.60;61.60
22635;DHT22;11484;50.858;4.384;2022-08-21T14:25:02;26.60;61.60
22635;DHT22;11484;50.858;4.384;2022-08-21T14:27:32;26.40;62.20
22635;DHT22;11484;50.858;4.384;2022-08-21T14:30:01;26.50;62.10
22635;DHT22;11484;50.858;4.384;2022-08-21T14:32:30;26.60;61.70
22635;DHT22;11484;50.858;4.384;2022-08-21T14:34:57;26.60;61.90
22635;DHT22;11484;50.858;4.384;2022-08-21T14:37:24;26.60;62.00
22635;DHT22;11484;50.858;4.384;2022-08-21T14:39:50;26.40;62.00
22635;DHT22;11484;50.858;4.384;2022-08-21T14:42:16;26.40;62.90
22635;DHT22;11484;50.858;4.384;2022-08-21T14:44:42;26.30;63.30
22635;DHT22;11484;50.858;4.384;2022-08-21T14:47:09;26.40;63.30
22635;DHT22;11484;50.858;4.384;2022-08-21T14:49:34;26.40;62.90
22635;DHT22;11484;50.858;4.384;2022-08-21T14:52:00;26.60;62.90
22635;DHT22;11484;50.858;4.384;2022-08-21T14:54:30;26.70;63.00
22635;DHT22;11484;50.858;4.384;2022-08-21T14:56:58;26.70;62.20
22635;DHT22;11484;50.858;4.384;2022-08-21T14:59:24;26.80;62.40
22635;DHT22;11484;50.858;4.384;2022-08-21T15:01:51;26.80;61.60
22635;DHT22;11484;50.858;4.384;2022-08-21T15:04:17;26.80;61.70
22635;DHT22;11484;50.858;4.384;2022-08-21T15:06:45;26.90;61.70
22635;DHT22;11484;50.858;4.384;2022-08-21T15:09:11;26.70;61.20
22635;DHT22;11484;50.858;4.384;2022-08-21T15:11:36;26.70;61.80
22635;DHT22;11484;50.858;4.384;2022-08-21T15:14:05;26.70;61.20
22635;DHT22;11484;50.858;4.384;2022-08-21T15:16:32;26.80;61.50
22635;DHT22;11484;50.858;4.384;2022-08-21T15:18:58;26.90;61.20
22635;DHT22;11484;50.858;4.384;2022-08-21T15:21:24;26.80;60.70
22635;DHT22;11484;50.858;4.384;2022-08-21T15:23:50;26.70;61.20
22635;DHT22;11484;50.858;4.384;2022-08-21T15:26:22;26.50;62.00
22635;DHT22;11484;50.858;4.384;2022-08-21T15:28:48;26.60;62.00
22635;DHT22;11484;50.858;4.384;2022-08-21T15:31:14;26.70;61.70
22635;DHT22;11484;50.858;4.384;2022-08-21T15:33:40;26.70;61.50
22635;DHT22;11484;50.858;4.384;2022-08-21T15:36:07;26.80;60.70
22635;DHT22;11484;50.858;4.384;2022-08-21T15:38:32;26.80;59.80
22635;DHT22;11484;50.858;4.384;2022-08-21T15:40:58;26.80;59.90
22635;DHT22;11484;50.858;4.384;2022-08-21T15:43:27;26.70;60.20
22635;DHT22;11484;50.858;4.384;2022-08-21T15:45:53;26.70;60.20
22635;DHT22;11484;50.858;4.384;2022-08-21T15:48:20;26.70;59.50
22635;DHT22;11484;50.858;4.384;2022-08-21T15:50:46;26.60;59.90
22635;DHT22;11484;50.858;4.384;2022-08-21T15:53:12;26.50;60.20
22635;DHT22;11484;50.858;4.384;2022-08-21T15:55:38;26.50;60.30
22635;DHT22;11484;50.858;4.384;2022-08-21T15:58:04;26.60;60.30
22635;DHT22;11484;50.858;4.384;2022-08-21T16:00:34;26.50;60.40
22635;DHT22;11484;50.858;4.384;2022-08-21T16:03:03;26.50;59.90
22635;DHT22;11484;50.858;4.384;2022-08-21T16:05:29;26.50;60.10
22635;DHT22;11484;50.858;4.384;2022-08-21T16:07:55;26.40;59.90
22635;DHT22;11484;50.858;4.384;2022-08-21T16:10:22;26.30;60.30
22635;DHT22;11484;50.858;4.384;2022-08-21T16:12:58;26.30;61.00
22635;DHT22;11484;50.858;4.384;2022-08-21T16:15:26;26.40;60.80
22635;DHT22;11484;50.858;4.384;2022-08-21T16:17:52;26.50;60.70
22635;DHT22;11484;50.858;4.384;2022-08-21T16:20:25;26.40;60.60
22635;DHT22;11484;50.858;4.384;2022-08-21T16:22:53;26.30;61.10
22635;DHT22;11484;50.858;4.384;2022-08-21T16:25:19;26.20;61.70
22635;DHT22;11484;50.858;4.384;2022-08-21T16:27:50;26.20;61.70
22635;DHT22;11484;50.858;4.384;2022-08-21T16:30:17;26.20;61.70
22635;DHT22;11484;50.858;4.384;2022-08-21T16:32:43;26.20;61.50
22635;DHT22;11484;50.858;4.384;2022-08-21T16:35:12;26.20;61.40
22635;DHT22;11484;50.858;4.384;2022-08-21T16:37:40;26.20;61.10
22635;DHT22;11484;50.858;4.384;2022-08-21T16:40:07;26.20;61.10
22635;DHT22;11484;50.858;4.384;2022-08-21T16:42:36;26.20;61.00
22635;DHT22;11484;50.858;4.384;2022-08-21T16:45:05;26.10;59.60
22635;DHT22;11484;50.858;4.384;2022-08-21T16:47:31;26.00;59.80
22635;DHT22;11484;50.858;4.384;2022-08-21T16:49:57;25.80;60.60
22635;DHT22;11484;50.858;4.384;2022-08-21T16:52:23;25.70;61.00
22635;DHT22;11484;50.858;4.384;2022-08-21T16:54:49;25.70;61.40
22635;DHT22;11484;50.858;4.384;2022-08-21T16:57:15;25.80;61.60
22635;DHT22;11484;50.858;4.384;2022-08-21T16:59:41;25.90;61.60
22635;DHT22;11484;50.858;4.384;2022-08-21T17:05:13;26.00;61.10